sensor_id;sensor_type;location;lat;lon;timestamp;temperature;humidity
10010;DHT22;5044;48.652;9.250;2023-04-02T09:26:33;10.50;99.90
10010;DHT22;5044;48.652;9.250;2023-04-02T09:29:21;10.50;99.90
10010;DHT22;5044;48.652;9.250;2023-04-02T09:31:56;10.80;99.90
10010;DHT22;5044;48.652;9.250;2023-04-02T09:34:26;10.90;99.90
10010;DHT22;5044;48.652;9.250;2023-04-02T09:36:54;11.00;99.90
10010;DHT22;5044;48.652;9.250;2023-04-02T09:39:23;11.10;99.90
10010;DHT22;5044;48.652;9.250;2023-04-02T09:41:52;11.10;99.90
10010;DHT22;5044;48.652;9.250;2023-04-02T09:44:23;11.20;99.90
10010;DHT22;5044;48.652;9.250;2023-04-02T09:46:54;11.30;99.90
10010;DHT22;5044;48.652;9.250;2023-04-02T09:49:26;11.40;99.90
10010;DHT22;5044;48.652;9.250;2023-04-02T09:52:27;11.90;99.90
10010;DHT22;5044;48.652;9.250;2023-04-02T09:55:17;12.00;99.90
10010;DHT22;5044;48.652;9.250;2023-04-02T09:57:48;11.70;99.90
10010;DHT22;5044;48.652;9.250;2023-04-02T10:00:19;11.90;99.90
10010;DHT22;5044;48.652;9.250;2023-04-02T10:03:04;11.80;99.90
10010;DHT22;5044;48.652;9.250;2023-04-02T10:05:32;11.70;99.90
10010;DHT22;5044;48.652;9.250;2023-04-02T10:08:08;11.80;99.90
10010;DHT22;5044;48.652;9.250;2023-04-02T10:10:41;12.10;99.90
10010;DHT22;5044;48.652;9.250;2023-04-02T10:13:18;12.40;99.90
10010;DHT22;5044;48.652;9.250;2023-04-02T10:15:49;12.50;99.80
10010;DHT22;5044;48.652;9.250;2023-04-02T10:18:26;12.60;99.90
10010;DHT22;5044;48.652;9.250;2023-04-02T10:20:56;12.80;99.40
10010;DHT22;5044;48.652;9.250;2023-04-02T10:23:28;12.80;99.50
10010;DHT22;5044;48.652;9.250;2023-04-02T10:26:04;12.70;95.70
10010;DHT22;5044;48.652;9.250;2023-04-02T10:28:46;12.50;99.70
10010;DHT22;5044;48.652;9.250;2023-04-02T10:31:17;12.60;99.80
10010;DHT22;5044;48.652;9.250;2023-04-02T10:33:50;12.20;97.70
10010;DHT22;5044;48.652;9.250;2023-04-02T10:36:23;11.80;98.20
10010;DHT22;5044;48.652;9.250;2023-04-02T10:38:57;11.80;99.90
10010;DHT22;5044;48.652;9.250;2023-04-02T10:41:31;12.00;99.90
10010;DHT22;5044;48.652;9.250;2023-04-02T10:44:03;11.70;99.90
10010;DHT22;5044;48.652;9.250;2023-04-02T10:46:39;11.50;99.90
10010;DHT22;5044;48.652;9.250;2023-04-02T10:49:15;11.40;99.90
10010;DHT22;5044;48.652;9.250;2023-04-02T10:51:53;10.90;99.90
10010;DHT22;5044;48.652;9.250;2023-04-02T10:54:38;10.70;99.90
10010;DHT22;5044;48.652;9.250;2023-04-02T10:57:10;10.70;99.90
10010;DHT22;5044;48.652;9.250;2023-04-02T10:59:41;10.80;99.90
10010;DHT22;5044;48.652;9.250;2023-04-02T11:02:32;10.60;99.90
10010;DHT22;5044;48.652;9.250;2023-04-02T11:05:06;10.50;99.90
10010;DHT22;5044;48.652;9.250;2023-04-02T11:07:48;10.50;99.90
10010;DHT22;5044;48.652;9.250;2023-04-02T11:10:19;10.60;99.90
10010;DHT22;5044;48.652;9.250;2023-04-02T11:12:52;10.50;99.90
10010;DHT22;5044;48.652;9.250;2023-04-02T11:15:23;10.60;99.90
10010;DHT22;5044;48.652;9.250;2023-04-02T11:17:50;10.40;99.90
10010;DHT22;5044;48.652;9.250;2023-04-02T11:20:47;10.60;99.90
10010;DHT22;5044;48.652;9.250;2023-04-02T11:23:20;10.60;99.90
10010;DHT22;5044;48.652;9.250;2023-04-02T11:25:47;10.60;99.90
10010;DHT22;5044;48.652;9.250;2023-04-02T11:28:25;10.90;99.90
10010;DHT22;5044;48.652;9.250;2023-04-02T11:30:54;11.00;99.90
10010;DHT22;5044;48.652;9.250;2023-04-02T11:33:25;11.10;99.90
10010;DHT22;5044;48.652;9.250;2023-04-02T11:36:03;11.00;99.90
10010;DHT22;5044;48.652;9.250;2023-04-02T11:38:49;11.10;99.90
10010;DHT22;5044;48.652;9.250;2023-04-02T11:44:23;11.30;99.90
10010;DHT22;5044;48.652;9.250;2023-04-02T11:46:51;11.00;99.90
10010;DHT22;5044;48.652;9.250;2023-04-02T11:49:38;11.10;99.90
10010;DHT22;5044;48.652;9.250;2023-04-02T11:52:21;11.10;99.90
10010;DHT22;5044;48.652;9.250;2023-04-02T11:55:19;11.20;99.90
10010;DHT22;5044;48.652;9.250;2023-04-02T12:07:17;11.30;99.90
10010;DHT22;5044;48.652;9.250;2023-04-02T12:10:02;11.20;99.90
10010;DHT22;5044;48.652;9.250;2023-04-02T12:12:33;11.30;99.90
10010;DHT22;5044;48.652;9.250;2023-04-02T12:15:31;11.40;99.90
10010;DHT22;5044;48.652;9.250;2023-04-02T12:18:04;11.10;99.90
10010;DHT22;5044;48.652;9.250;2023-04-02T12:20:37;11.10;99.90
10010;DHT22;5044;48.652;9.250;2023-04-02T12:23:05;11.10;99.90
10010;DHT22;5044;48.652;9.250;2023-04-02T12:25:41;11.30;99.90
10010;DHT22;5044;48.652;9.250;2023-04-02T12:28:15;11.40;99.90
10010;DHT22;5044;48.652;9.250;2023-04-02T12:30:44;11.10;99.90
10010;DHT22;5044;48.652;9.250;2023-04-02T12:33:16;11.50;99.90
10010;DHT22;5044;48.652;9.250;2023-04-02T12:35:56;11.60;99.90
10010;DHT22;5044;48.652;9.250;2023-04-02T12:38:25;11.60;99.90
10010;DHT22;5044;48.652;9.250;2023-04-02T12:40:54;11.60;99.90
10010;DHT22;5044;48.652;9.250;2023-04-02T12:43:26;11.50;99.90
10010;DHT22;5044;48.652;9.250;2023-04-02T12:45:57;11.50;99.90
10010;DHT22;5044;48.652;9.250;2023-04-02T12:48:24;11.40;99.90
10010;DHT22;5044;48.652;9.250;2023-04-02T12:50:52;11.50;99.90
10010;DHT22;5044;48.652;9.250;2023-04-02T12:53:25;11.60;99.90
10010;DHT22;5044;48.652;9.250;2023-04-02T12:55:59;11.60;99.90
10010;DHT22;5044;48.652;9.250;2023-04-02T12:58:36;11.80;99.90
10010;DHT22;5044;48.652;9.250;2023-04-02T13:01:15;12.00;99.90
10010;DHT22;5044;48.652;9.250;2023-04-02T13:03:57;11.80;99.90
10010;DHT22;5044;48.652;9.250;2023-04-02T13:06:28;11.80;99.80
10010;DHT22;5044;48.652;9.250;2023-04-02T13:08:58;11.50;99.90
10010;DHT22;5044;48.652;9.250;2023-04-02T13:11:36;12.10;99.90
10010;DHT22;5044;48.652;9.250;2023-04-02T13:14:05;12.40;99.10
10010;DHT22;5044;48.652;9.250;2023-04-02T13:16:34;12.20;98.20
10010;DHT22;5044;48.652;9.250;2023-04-02T13:19:21;12.00;99.90
10010;DHT22;5044;48.652;9.250;2023-04-02T13:21:50;12.20;99.90
10010;DHT22;5044;48.652;9.250;2023-04-02T13:24:21;12.40;98.50
10010;DHT22;5044;48.652;9.250;2023-04-02T13:26:49;12.50;97.00
10010;DHT22;5044;48.652;9.250;2023-04-02T13:29:30;12.60;97.10
10010;DHT22;5044;48.652;9.250;2023-04-02T13:31:58;12.40;97.70
10010;DHT22;5044;48.652;9.250;2023-04-02T13:34:26;12.50;96.40
10010;DHT22;5044;48.652;9.250;2023-04-02T13:36:53;12.20;97.10
10010;DHT22;5044;48.652;9.250;2023-04-02T13:39:23;12.50;97.50
10010;DHT22;5044;48.652;9.250;2023-04-02T13:41:54;12.30;96.50
10010;DHT22;5044;48.652;9.250;2023-04-02T13:44:24;12.60;99.10
10010;DHT22;5044;48.652;9.250;2023-04-02T13:46:52;12.60;96.10
10010;DHT22;5044;48.652;9.250;2023-04-02T13:49:20;12.70;95.80
10010;DHT22;5044;48.652;9.250;2023-04-02T13:51:48;12.80;96.10
10010;DHT22;5044;48.652;9.250;2023-04-02T13:54:19;12.90;95.30
10010;DHT22;5044;48.652;9.250;2023-04-02T13:56:48;12.90;95.80
10010;DHT22;5044;48.652;9.250;2023-04-02T13:59:16;13.00;94.50
10010;DHT22;5044;48.652;9.250;2023-04-02T14:01:44;13.00;96.00
10010;DHT22;5044;48.652;9.250;2023-04-02T14:04:15;13.10;94.70
10010;DHT22;5044;48.652;9.250;2023-04-02T14:09:43;12.80;97.90
10010;DHT22;5044;48.652;9.250;2023-04-02T14:12:25;12.60;99.90
10010;DHT22;5044;48.652;9.250;2023-04-02T14:15:21;12.30;99.90
10010;DHT22;5044;48.652;9.250;2023-04-02T14:18:06;12.20;99.90
10010;DHT22;5044;48.652;9.250;2023-04-02T14:20:45;11.90;99.90
10010;DHT22;5044;48.652;9.250;2023-04-02T14:23:28;11.80;99.90
10010;DHT22;5044;48.652;9.250;2023-04-02T14:26:09;11.80;99.90
10010;DHT22;5044;48.652;9.250;2023-04-02T14:28:46;11.70;99.90
10010;DHT22;5044;48.652;9.250;2023-04-02T14:31:26;11.60;99.90
10010;DHT22;5044;48.652;9.250;2023-04-02T14:34:02;11.70;99.90
10010;DHT22;5044;48.652;9.250;2023-04-02T14:36:39;11.60;99.90
10010;DHT22;5044;48.652;9.250;2023-04-02T14:39:14;11.60;99.90
10010;DHT22;5044;48.652;9.250;2023-04-02T14:41:46;11.50;99.90
10010;DHT22;5044;48.652;9.250;2023-04-02T14:44:21;11.60;99.90
10010;DHT22;5044;48.652;9.250;2023-04-02T14:46:55;11.70;99.90
10010;DHT22;5044;48.652;9.250;2023-04-02T14:49:28;11.60;99.90
10010;DHT22;5044;48.652;9.250;2023-04-02T14:52:00;11.50;99.90
10010;DHT22;5044;48.652;9.250;2023-04-02T14:54:32;11.10;99.90
10010;DHT22;5044;48.652;9.250;2023-04-02T14:57:05;11.20;99.90
10010;DHT22;5044;48.652;9.250;2023-04-02T14:59:41;11.10;99.90
10010;DHT22;5044;48.652;9.250;2023-04-02T15:02:17;11.00;99.90
10010;DHT22;5044;48.652;9.250;2023-04-02T15:04:51;10.80;99.90
10010;DHT22;5044;48.652;9.250;2023-04-02T15:07:24;10.40;99.90
10010;DHT22;5044;48.652;9.250;2023-04-02T15:09:59;10.20;99.90
10010;DHT22;5044;48.652;9.250;2023-04-02T15:12:32;10.20;99.90
10010;DHT22;5044;48.652;9.250;2023-04-02T15:15:07;10.30;99.90
10010;DHT22;5044;48.652;9.250;2023-04-02T15:17:39;10.10;99.90
10010;DHT22;5044;48.652;9.250;2023-04-02T15:20:12;10.10;99.90
10010;DHT22;5044;48.652;9.250;2023-04-02T15:22:44;10.00;99.90
10010;DHT22;5044;48.652;9.250;2023-04-02T15:25:21;10.00;99.90
10010;DHT22;5044;48.652;9.250;2023-04-02T15:28:07;10.00;99.90
10010;DHT22;5044;48.652;9.250;2023-04-02T15:30:42;9.90;99.90
10010;DHT22;5044;48.652;9.250;2023-04-02T15:33:34;9.80;99.90
10010;DHT22;5044;48.652;9.250;2023-04-02T15:39:02;9.70;99.90
10010;DHT22;5044;48.652;9.250;2023-04-02T15:41:40;9.60;99.90
10010;DHT22;5044;48.652;9.250;2023-04-02T15:44:11;9.70;99.90
10010;DHT22;5044;48.652;9.250;2023-04-02T15:46:50;9.80;99.90
10010;DHT22;5044;48.652;9.250;2023-04-02T15:49:36;9.70;99.90
10010;DHT22;5044;48.652;9.250;2023-04-02T15:52:09;9.70;99.90
10010;DHT22;5044;48.652;9.250;2023-04-02T15:54:55;9.70;99.90
10010;DHT22;5044;48.652;9.250;2023-04-02T15:57:44;9.70;99.90
10010;DHT22;5044;48.652;9.250;2023-04-02T16:00:27;9.60;99.90
10010;DHT22;5044;48.652;9.250;2023-04-02T16:05:59;9.30;99.90
10010;DHT22;5044;48.652;9.250;2023-04-02T16:08:40;9.10;99.90
10010;DHT22;5044;48.652;9.250;2023-04-02T16:11:11;9.10;99.90
10010;DHT22;5044;48.652;9.250;2023-04-02T16:13:40;9.10;99.90
10010;DHT22;5044;48.652;9.250;2023-04-02T16:16:11;9.10;99.90
10010;DHT22;5044;48.652;9.250;2023-04-02T16:18:48;8.90;99.90
10010;DHT22;5044;48.652;9.250;2023-04-02T16:21:20;9.00;99.90
10010;DHT22;5044;48.652;9.250;2023-04-02T16:23:48;8.90;99.90
10010;DHT22;5044;48.652;9.250;2023-04-02T16:26:29;8.70;99.90
10010;DHT22;5044;48.652;9.250;2023-04-02T16:29:09;8.50;99.90
10010;DHT22;5044;48.652;9.250;2023-04-02T16:31:55;8.50;99.90
10010;DHT22;5044;48.652;9.250;2023-04-02T16:34:31;8.40;99.90
10010;DHT22;5044;48.652;9.250;2023-04-02T16:37:09;8.40;99.90
10010;DHT22;5044;48.652;9.250;2023-04-02T16:40:03;8.40;99.90
10010;DHT22;5044;48.652;9.250;2023-04-02T16:42:44;8.50;99.90
10010;DHT22;5044;48.652;9.250;2023-04-02T16:45:25;8.60;99.90
10010;DHT22;5044;48.652;9.250;2023-04-02T16:48:07;8.50;99.90
10010;DHT22;5044;48.652;9.250;2023-04-02T16:50:42;8.40;99.90
10010;DHT22;5044;48.652;9.250;2023-04-02T16:53:21;8.40;99.90
10010;DHT22;5044;48.652;9.250;2023-04-02T16:56:01;8.30;99.90
10010;DHT22;5044;48.652;9.250;2023-04-02T16:58:40;8.10;99.90
10010;DHT22;5044;48.652;9.250;2023-04-02T17:01:24;8.10;99.90
10010;DHT22;5044;48.652;9.250;2023-04-02T17:07:09;8.00;99.90
10010;DHT22;5044;48.652;9.250;2023-04-02T17:09:47;7.90;99.90
10010;DHT22;5044;48.652;9.250;2023-04-02T17:12:19;7.80;99.90
10010;DHT22;5044;48.652;9.250;2023-04-02T17:14:49;7.90;99.90
10010;DHT22;5044;48.652;9.250;2023-04-02T17:17:17;7.80;99.90
10010;DHT22;5044;48.652;9.250;2023-04-02T17:19:46;7.60;99.90
10010;DHT22;5044;48.652;9.250;2023-04-02T17:22:19;7.60;99.90
10010;DHT22;5044;48.652;9.250;2023-04-02T17:24:49;7.60;99.90
10010;DHT22;5044;48.652;9.250;2023-04-02T17:27:22;7.60;99.90
10010;DHT22;5044;48.652;9.250;2023-04-02T17:29:53;7.60;99.90
10010;DHT22;5044;48.652;9.250;2023-04-02T17:32:26;7.50;99.90
10010;DHT22;5044;48.652;9.250;2023-04-02T17:34:54;7.50;99.90
10010;DHT22;5044;48.652;9.250;2023-04-02T17:37:28;7.40;99.90
10010;DHT22;5044;48.652;9.250;2023-04-02T17:40:05;7.40;99.90
10010;DHT22;5044;48.652;9.250;2023-04-02T17:42:47;7.30;99.90
10010;DHT22;5044;48.652;9.250;2023-04-02T17:45:19;7.30;99.90
10010;DHT22;5044;48.652;9.250;2023-04-02T17:47:56;7.30;99.90
10010;DHT22;5044;48.652;9.250;2023-04-02T17:53:33;7.30;99.90
10010;DHT22;5044;48.652;9.250;2023-04-02T17:56:22;7.30;99.90
10010;DHT22;5044;48.652;9.250;2023-04-02T17:59:19;7.30;99.90
10010;DHT22;5044;48.652;9.250;2023-04-02T18:01:55;7.30;99.90
10010;DHT22;5044;48.652;9.250;2023-04-02T18:04:40;7.20;99.90
10010;DHT22;5044;48.652;9.250;2023-04-02T18:07:22;7.00;99.90
10010;DHT22;5044;48.652;9.250;2023-04-02T18:10:00;7.00;99.90
10010;DHT22;5044;48.652;9.250;2023-04-02T18:12:42;6.90;99.90
10010;DHT22;5044;48.652;9.250;2023-04-02T18:15:27;6.70;99.90
10010;DHT22;5044;48.652;9.250;2023-04-02T18:18:00;6.90;99.90
10010;DHT22;5044;48.652;9.250;2023-04-02T18:20:36;6.60;99.90
10010;DHT22;5044;48.652;9.250;2023-04-02T18:23:10;6.60;99.90
10010;DHT22;5044;48.652;9.250;2023-04-02T18:25:44;6.40;99.90
10010;DHT22;5044;48.652;9.250;2023-04-02T18:28:40;6.30;99.90
10010;DHT22;5044;48.652;9.250;2023-04-02T18:31:18;6.30;99.90
10010;DHT22;5044;48.652;9.250;2023-04-02T18:34:09;6.40;99.90
10010;DHT22;5044;48.652;9.250;2023-04-02T18:36:46;6.30;99.90
10010;DHT22;5044;48.652;9.250;2023-04-02T18:39:22;6.30;99.90
10010;DHT22;5044;48.652;9.250;2023-04-02T18:41:55;6.40;99.90
10010;DHT22;5044;48.652;9.250;2023-04-02T18:44:36;6.30;99.90
10010;DHT22;5044;48.652;9.250;2023-04-02T18:47:17;6.30;99.90
10010;DHT22;5044;48.652;9.250;2023-04-02T18:49:50;6.30;99.90
10010;DHT22;5044;48.652;9.250;2023-04-02T18:52:20;6.30;99.90
10010;DHT22;5044;48.652;9.250;2023-04-02T18:54:49;6.30;99.90
10010;DHT22;5044;48.652;9.250;2023-04-02T18:57:23;6.20;99.90
10010;DHT22;5044;48.652;9.250;2023-04-02T18:59:55;6.10;99.90
10010;DHT22;5044;48.652;9.250;2023-04-02T19:02:38;5.90;99.90
10010;DHT22;5044;48.652;9.250;2023-04-02T19:05:16;5.90;99.90
10010;DHT22;5044;48.652;9.250;2023-04-02T19:07:47;5.80;99.90
10010;DHT22;5044;48.652;9.250;2023-04-02T19:10:24;5.60;99.90
10010;DHT22;5044;48.652;9.250;2023-04-02T19:12:54;5.50;99.90
10010;DHT22;5044;48.652;9.250;2023-04-02T19:15:25;5.60;99.90
10010;DHT22;5044;48.652;9.250;2023-04-02T19:18:01;5.40;99.90
10010;DHT22;5044;48.652;9.250;2023-04-02T19:20:35;5.30;99.90
10010;DHT22;5044;48.652;9.250;2023-04-02T19:23:14;5.50;99.90
10010;DHT22;5044;48.652;9.250;2023-04-02T19:25:55;5.50;99.90
10010;DHT22;5044;48.652;9.250;2023-04-02T19:28:30;5.30;99.90
10010;DHT22;5044;48.652;9.250;2023-04-02T19:31:17;5.40;99.90
10010;DHT22;5044;48.652;9.250;2023-04-02T19:33:53;5.50;99.90
10010;DHT22;5044;48.652;9.250;2023-04-02T19:36:35;5.50;99.90
10010;DHT22;5044;48.652;9.250;2023-04-02T19:39:27;5.50;99.90
10010;DHT22;5044;48.652;9.250;2023-04-02T19:42:02;5.40;99.90
10010;DHT22;5044;48.652;9.250;2023-04-02T19:44:44;5.20;99.90
10010;DHT22;5044;48.652;9.250;2023-04-02T19:47:12;5.10;99.90
10010;DHT22;5044;48.652;9.250;2023-04-02T19:49:40;5.00;99.90
10010;DHT22;5044;48.652;9.250;2023-04-02T19:52:08;4.90;99.90
10010;DHT22;5044;48.652;9.250;2023-04-02T19:54:35;4.80;99.90
10010;DHT22;5044;48.652;9.250;2023-04-02T19:57:03;5.10;99.90
10010;DHT22;5044;48.652;9.250;2023-04-02T19:59:30;4.80;99.90
10010;DHT22;5044;48.652;9.250;2023-04-02T20:01:58;4.80;99.90
10010;DHT22;5044;48.652;9.250;2023-04-02T20:04:30;4.60;99.90
10010;DHT22;5044;48.652;9.250;2023-04-02T20:06:57;4.60;99.90
10010;DHT22;5044;48.652;9.250;2023-04-02T20:09:24;4.60;99.90
10010;DHT22;5044;48.652;9.250;2023-04-02T20:11:51;4.60;99.90
10010;DHT22;5044;48.652;9.250;2023-04-02T20:14:18;4.60;99.90
10010;DHT22;5044;48.652;9.250;2023-04-02T20:16:45;4.50;99.90
10010;DHT22;5044;48.652;9.250;2023-04-02T20:19:14;4.70;99.90
10010;DHT22;5044;48.652;9.250;2023-04-02T20:21:48;4.80;99.90
10010;DHT22;5044;48.652;9.250;2023-04-02T20:24:15;4.20;99.90
10010;DHT22;5044;48.652;9.250;2023-04-02T20:26:42;4.70;99.90
10010;DHT22;5044;48.652;9.250;2023-04-02T20:29:09;5.00;99.90
10010;DHT22;5044;48.652;9.250;2023-04-02T20:31:36;4.60;99.90
10010;DHT22;5044;48.652;9.250;2023-04-02T20:34:03;4.70;99.90
10010;DHT22;5044;48.652;9.250;2023-04-02T20:36:34;4.50;99.90
10010;DHT22;5044;48.652;9.250;2023-04-02T20:39:03;4.40;99.90
10010;DHT22;5044;48.652;9.250;2023-04-02T20:41:33;4.30;99.90
10010;DHT22;5044;48.652;9.250;2023-04-02T20:44:02;4.20;99.90
10010;DHT22;5044;48.652;9.250;2023-04-02T20:46:28;4.30;99.90
10010;DHT22;5044;48.652;9.250;2023-04-02T20:48:55;4.20;99.90
10010;DHT22;5044;48.652;9.250;2023-04-02T20:51:22;4.30;99.90
10010;DHT22;5044;48.652;9.250;2023-04-02T20:53:51;4.20;99.90
10010;DHT22;5044;48.652;9.250;2023-04-02T20:56:18;4.30;99.90
10010;DHT22;5044;48.652;9.250;2023-04-02T20:58:48;4.60;99.90
10010;DHT22;5044;48.652;9.250;2023-04-02T21:01:17;4.00;99.90
10010;DHT22;5044;48.652;9.250;2023-04-02T21:03:45;4.00;99.90
10010;DHT22;5044;48.652;9.250;2023-04-02T21:06:12;4.10;99.90
10010;DHT22;5044;48.652;9.250;2023-04-02T21:08:39;4.00;99.90
10010;DHT22;5044;48.652;9.250;2023-04-02T21:11:08;3.90;99.90
10010;DHT22;5044;48.652;9.250;2023-04-02T21:13:36;4.20;99.90
10010;DHT22;5044;48.652;9.250;2023-04-02T21:16:04;3.80;99.90
10010;DHT22;5044;48.652;9.250;2023-04-02T21:18:32;3.80;99.90
10010;DHT22;5044;48.652;9.250;2023-04-02T21:21:00;3.80;99.90
10010;DHT22;5044;48.652;9.250;2023-04-02T21:23:27;4.10;99.90
10010;DHT22;5044;48.652;9.250;2023-04-02T21:25:57;4.00;99.90
10010;DHT22;5044;48.652;9.250;2023-04-02T21:28:28;3.90;99.90
10010;DHT22;5044;48.652;9.250;2023-04-02T21:31:01;3.70;99.90
10010;DHT22;5044;48.652;9.250;2023-04-02T21:33:28;4.10;99.90
10010;DHT22;5044;48.652;9.250;2023-04-02T21:35:55;3.60;99.90
10010;DHT22;5044;48.652;9.250;2023-04-02T21:38:22;3.50;99.90
10010;DHT22;5044;48.652;9.250;2023-04-02T21:40:52;3.60;99.90
10010;DHT22;5044;48.652;9.250;2023-04-02T21:43:19;3.50;99.90
10010;DHT22;5044;48.652;9.250;2023-04-02T21:45:47;3.90;99.90
10010;DHT22;5044;48.652;9.250;2023-04-02T21:48:13;3.50;99.90
10010;DHT22;5044;48.652;9.250;2023-04-02T21:50:40;3.70;99.90
10010;DHT22;5044;48.652;9.250;2023-04-02T21:53:07;3.60;99.90
10010;DHT22;5044;48.652;9.250;2023-04-02T21:55:34;3.70;99.90
10010;DHT22;5044;48.652;9.250;2023-04-02T21:58:01;3.70;99.90
10010;DHT22;5044;48.652;9.250;2023-04-02T22:00:28;3.60;99.90
10010;DHT22;5044;48.652;9.250;2023-04-02T22:02:58;3.90;99.90
10010;DHT22;5044;48.652;9.250;2023-04-02T22:05:25;3.60;99.90
10010;DHT22;5044;48.652;9.250;2023-04-02T22:07:53;3.50;99.90
10010;DHT22;5044;48.652;9.250;2023-04-02T22:10:20;3.70;99.90
10010;DHT22;5044;48.652;9.250;2023-04-02T22:12:47;3.50;99.90
10010;DHT22;5044;48.652;9.250;2023-04-02T22:15:14;3.50;99.90
10010;DHT22;5044;48.652;9.250;2023-04-02T22:17:40;3.60;99.90
10010;DHT22;5044;48.652;9.250;2023-04-02T22:20:10;3.60;99.90
10010;DHT22;5044;48.652;9.250;2023-04-02T22:22:37;3.50;99.90
10010;DHT22;5044;48.652;9.250;2023-04-02T22:25:04;3.60;99.90
10010;DHT22;5044;48.652;9.250;2023-04-02T22:27:31;3.50;99.90
10010;DHT22;5044;48.652;9.250;2023-04-02T22:29:58;3.40;99.90
10010;DHT22;5044;48.652;9.250;2023-04-02T22:32:27;3.40;99.90
10010;DHT22;5044;48.652;9.250;2023-04-02T22:34:57;3.40;99.90
10010;DHT22;5044;48.652;9.250;2023-04-02T22:37:25;3.40;99.90
10010;DHT22;5044;48.652;9.250;2023-04-02T22:39:52;3.40;99.90
10010;DHT22;5044;48.652;9.250;2023-04-02T22:42:19;3.40;99.90
10010;DHT22;5044;48.652;9.250;2023-04-02T22:44:46;3.80;99.90
10010;DHT22;5044;48.652;9.250;2023-04-02T22:47:13;3.50;99.90
10010;DHT22;5044;48.652;9.250;2023-04-02T22:49:40;3.40;99.90
10010;DHT22;5044;48.652;9.250;2023-04-02T22:52:07;4.00;99.90
10010;DHT22;5044;48.652;9.250;2023-04-02T22:54:35;3.50;99.90
10010;DHT22;5044;48.652;9.250;2023-04-02T22:57:02;3.80;99.90
10010;DHT22;5044;48.652;9.250;2023-04-02T22:59:29;3.40;99.90
10010;DHT22;5044;48.652;9.250;2023-04-02T23:01:56;3.20;99.90
10010;DHT22;5044;48.652;9.250;2023-04-02T23:04:23;3.40;99.90
10010;DHT22;5044;48.652;9.250;2023-04-02T23:06:49;3.40;99.90
10010;DHT22;5044;48.652;9.250;2023-04-02T23:09:16;3.90;99.90
10010;DHT22;5044;48.652;9.250;2023-04-02T23:11:44;3.40;99.90
10010;DHT22;5044;48.652;9.250;2023-04-02T23:14:11;3.20;99.90
10010;DHT22;5044;48.652;9.250;2023-04-02T23:16:38;3.20;99.90
10010;DHT22;5044;48.652;9.250;2023-04-02T23:19:05;3.20;99.90
10010;DHT22;5044;48.652;9.250;2023-04-02T23:21:32;3.80;99.90
10010;DHT22;5044;48.652;9.250;2023-04-02T23:23:58;3.40;99.90
10010;DHT22;5044;48.652;9.250;2023-04-02T23:26:26;3.30;99.90
10010;DHT22;5044;48.652;9.250;2023-04-02T23:28:58;3.50;99.90
10010;DHT22;5044;48.652;9.250;2023-04-02T23:31:25;3.20;99.90
10010;DHT22;5044;48.652;9.250;2023-04-02T23:33:54;3.20;99.90
10010;DHT22;5044;48.652;9.250;2023-04-02T23:36:23;3.30;99.90
10010;DHT22;5044;48.652;9.250;2023-04-02T23:38:51;3.40;99.90
10010;DHT22;5044;48.652;9.250;2023-04-02T23:41:20;3.40;99.90
10010;DHT22;5044;48.652;9.250;2023-04-02T23:43:47;3.30;99.90
10010;DHT22;5044;48.652;9.250;2023-04-02T23:46:15;3.30;99.90
10010;DHT22;5044;48.652;9.250;2023-04-02T23:48:42;3.50;99.90
10010;DHT22;5044;48.652;9.250;2023-04-02T23:51:10;3.70;99.90
10010;DHT22;5044;48.652;9.250;2023-04-02T23:53:37;3.30;99.90
10010;DHT22;5044;48.652;9.250;2023-04-02T23:56:04;3.20;99.90
10010;DHT22;5044;48.652;9.250;2023-04-02T23:58:31;3.20;99.90
